sensor_id;sensor_type;location;lat;lon;timestamp;pressure;altitude;pressure_sealevel;temperature;humidity
46942;BME280;32676;52.630;4.896;2022-12-24T00:00:30;101974.69;;;9.16;91.73
46942;BME280;32676;52.630;4.896;2022-12-24T00:02:56;101975.59;;;9.15;91.64
46942;BME280;32676;52.630;4.896;2022-12-24T00:05:23;101960.81;;;9.07;91.82
46942;BME280;32676;52.630;4.896;2022-12-24T00:07:51;101962.50;;;9.12;91.33
46942;BME280;32676;52.630;4.896;2022-12-24T00:10:18;101973.84;;;9.14;91.27
46942;BME280;32676;52.630;4.896;2022-12-24T00:12:44;101968.59;;;9.14;90.86
46942;BME280;32676;52.630;4.896;2022-12-24T00:15:11;101973.84;;;9.16;90.68
46942;BME280;32676;52.630;4.896;2022-12-24T00:17:37;101978.22;;;9.17;90.34
46942;BME280;32676;52.630;4.896;2022-12-24T00:20:05;101982.56;;;9.19;90.00
46942;BME280;32676;52.630;4.896;2022-12-24T00:22:32;101992.19;;;9.19;89.90
46942;BME280;32676;52.630;4.896;2022-12-24T00:24:59;101998.28;;;9.22;89.59
46942;BME280;32676;52.630;4.896;2022-12-24T00:27:26;102002.63;;;9.23;89.10
46942;BME280;32676;52.630;4.896;2022-12-24T00:29:53;101983.47;;;9.14;89.01
46942;BME280;32676;52.630;4.896;2022-12-24T00:32:19;102011.31;;;9.27;88.96
46942;BME280;32676;52.630;4.896;2022-12-24T00:34:45;102020.97;;;9.27;88.64
46942;BME280;32676;52.630;4.896;2022-12-24T00:37:12;102019.19;;;9.29;88.44
46942;BME280;32676;52.630;4.896;2022-12-24T00:39:39;102019.19;;;9.29;88.27
46942;BME280;32676;52.630;4.896;2022-12-24T00:42:07;102030.53;;;9.29;88.06
46942;BME280;32676;52.630;4.896;2022-12-24T00:44:33;102029.69;;;9.29;88.11
46942;BME280;32676;52.630;4.896;2022-12-24T00:47:00;102022.69;;;9.28;88.10
46942;BME280;32676;52.630;4.896;2022-12-24T00:49:26;102010.53;;;9.19;87.94
46942;BME280;32676;52.630;4.896;2022-12-24T00:51:53;102034.00;;;9.33;87.88
46942;BME280;32676;52.630;4.896;2022-12-24T00:54:19;102038.41;;;9.34;87.88
46942;BME280;32676;52.630;4.896;2022-12-24T00:56:46;102043.63;;;9.34;87.91
46942;BME280;32676;52.630;4.896;2022-12-24T00:59:13;102032.28;;;9.32;87.72
46942;BME280;32676;52.630;4.896;2022-12-24T01:01:40;102033.16;;;9.31;87.85
46942;BME280;32676;52.630;4.896;2022-12-24T01:04:06;102041.88;;;9.36;87.69
46942;BME280;32676;52.630;4.896;2022-12-24T01:06:51;102034.00;;;9.33;87.80
46942;BME280;32676;52.630;4.896;2022-12-24T01:09:17;102033.16;;;9.34;87.82
46942;BME280;32676;52.630;4.896;2022-12-24T01:11:43;102023.53;;;9.31;87.65
46942;BME280;32676;52.630;4.896;2022-12-24T01:14:10;102027.91;;;9.32;87.67
46942;BME280;32676;52.630;4.896;2022-12-24T01:16:38;102026.16;;;9.33;87.69
46942;BME280;32676;52.630;4.896;2022-12-24T01:19:05;102006.16;;;9.21;87.42
46942;BME280;32676;52.630;4.896;2022-12-24T01:21:31;102017.44;;;9.31;87.27
46942;BME280;32676;52.630;4.896;2022-12-24T01:23:58;102008.69;;;9.29;87.40
46942;BME280;32676;52.630;4.896;2022-12-24T01:26:24;102011.31;;;9.30;87.43
46942;BME280;32676;52.630;4.896;2022-12-24T01:28:50;102013.06;;;9.30;87.15
46942;BME280;32676;52.630;4.896;2022-12-24T01:31:18;102015.69;;;9.30;87.13
46942;BME280;32676;52.630;4.896;2022-12-24T01:33:48;102006.94;;;9.29;87.10
46942;BME280;32676;52.630;4.896;2022-12-24T01:36:16;102004.38;;;9.26;86.93
46942;BME280;32676;52.630;4.896;2022-12-24T01:38:42;101982.56;;;9.16;86.95
46942;BME280;32676;52.630;4.896;2022-12-24T01:41:14;101999.97;;;9.27;87.07
46942;BME280;32676;52.630;4.896;2022-12-24T01:44:17;102005.22;;;9.30;87.02
46942;BME280;32676;52.630;4.896;2022-12-24T01:46:43;102001.69;;;9.31;86.88
46942;BME280;32676;52.630;4.896;2022-12-24T01:49:13;102000.84;;;9.27;87.02
46942;BME280;32676;52.630;4.896;2022-12-24T01:51:42;101994.75;;;9.23;86.93
46942;BME280;32676;52.630;4.896;2022-12-24T01:54:12;101999.06;;;9.28;86.67
46942;BME280;32676;52.630;4.896;2022-12-24T01:56:43;101988.63;;;9.25;86.96
46942;BME280;32676;52.630;4.896;2022-12-24T01:59:12;101977.28;;;9.22;86.80
46942;BME280;32676;52.630;4.896;2022-12-24T02:01:40;101965.94;;;9.20;86.77
46942;BME280;32676;52.630;4.896;2022-12-24T02:04:12;101956.31;;;9.19;86.73
46942;BME280;32676;52.630;4.896;2022-12-24T02:06:41;101909.31;;;8.98;86.85
46942;BME280;32676;52.630;4.896;2022-12-24T02:09:08;101927.53;;;9.13;86.74
46942;BME280;32676;52.630;4.896;2022-12-24T02:11:36;101915.31;;;9.09;86.99
46942;BME280;32676;52.630;4.896;2022-12-24T02:14:04;101892.72;;;8.99;86.94
46942;BME280;32676;52.630;4.896;2022-12-24T02:16:37;101877.81;;;9.01;87.02
46942;BME280;32676;52.630;4.896;2022-12-24T02:19:21;101859.50;;;8.95;87.37
46942;BME280;32676;52.630;4.896;2022-12-24T02:21:57;101849.94;;;8.94;87.33
46942;BME280;32676;52.630;4.896;2022-12-24T02:24:49;101828.13;;;8.90;87.32
46942;BME280;32676;52.630;4.896;2022-12-24T02:27:28;101823.75;;;8.88;87.58
46942;BME280;32676;52.630;4.896;2022-12-24T02:30:13;101804.59;;;8.82;87.80
46942;BME280;32676;52.630;4.896;2022-12-24T02:35:39;101784.53;;;8.80;87.92
46942;BME280;32676;52.630;4.896;2022-12-24T02:38:14;101775.00;;;8.71;88.12
46942;BME280;32676;52.630;4.896;2022-12-24T02:40:47;101759.25;;;8.73;88.05
46942;BME280;32676;52.630;4.896;2022-12-24T02:43:19;101750.53;;;8.72;88.35
46942;BME280;32676;52.630;4.896;2022-12-24T02:45:52;101739.22;;;8.69;88.36
46942;BME280;32676;52.630;4.896;2022-12-24T02:48:21;101735.81;;;8.60;88.36
46942;BME280;32676;52.630;4.896;2022-12-24T02:51:01;101747.09;;;8.67;88.47
46942;BME280;32676;52.630;4.896;2022-12-24T02:53:29;101727.88;;;8.68;88.46
46942;BME280;32676;52.630;4.896;2022-12-24T02:56:07;101718.28;;;8.65;88.41
46942;BME280;32676;52.630;4.896;2022-12-24T02:58:43;101707.84;;;8.62;88.39
46942;BME280;32676;52.630;4.896;2022-12-24T03:01:24;101704.31;;;8.63;88.42
46942;BME280;32676;52.630;4.896;2022-12-24T03:04:04;101695.63;;;8.61;88.52
46942;BME280;32676;52.630;4.896;2022-12-24T03:06:41;101686.06;;;8.59;88.55
46942;BME280;32676;52.630;4.896;2022-12-24T03:09:13;101684.31;;;8.58;88.50
46942;BME280;32676;52.630;4.896;2022-12-24T03:11:48;101675.59;;;8.56;88.49
46942;BME280;32676;52.630;4.896;2022-12-24T03:14:16;101665.13;;;8.53;88.74
46942;BME280;32676;52.630;4.896;2022-12-24T03:16:45;101670.38;;;8.53;88.69
46942;BME280;32676;52.630;4.896;2022-12-24T03:19:12;101659.91;;;8.53;88.52
46942;BME280;32676;52.630;4.896;2022-12-24T03:21:39;101664.28;;;8.54;88.74
46942;BME280;32676;52.630;4.896;2022-12-24T03:24:08;101657.28;;;8.51;88.73
46942;BME280;32676;52.630;4.896;2022-12-24T03:26:35;101662.53;;;8.53;88.84
46942;BME280;32676;52.630;4.896;2022-12-24T03:29:04;101664.28;;;8.51;88.81
46942;BME280;32676;52.630;4.896;2022-12-24T03:31:42;101651.19;;;8.51;88.94
46942;BME280;32676;52.630;4.896;2022-12-24T03:34:11;101658.19;;;8.52;88.95
46942;BME280;32676;52.630;4.896;2022-12-24T03:36:38;101655.56;;;8.52;88.82
46942;BME280;32676;52.630;4.896;2022-12-24T03:39:05;101665.97;;;8.55;89.09
46942;BME280;32676;52.630;4.896;2022-12-24T03:41:32;101676.44;;;8.58;89.21
46942;BME280;32676;52.630;4.896;2022-12-24T03:43:58;101690.38;;;8.60;89.24
46942;BME280;32676;52.630;4.896;2022-12-24T03:46:25;101703.47;;;8.63;89.44
46942;BME280;32676;52.630;4.896;2022-12-24T03:48:51;101713.94;;;8.63;89.58
46942;BME280;32676;52.630;4.896;2022-12-24T03:51:21;101724.34;;;8.69;89.53
46942;BME280;32676;52.630;4.896;2022-12-24T03:53:48;101723.50;;;8.69;89.70
46942;BME280;32676;52.630;4.896;2022-12-24T03:56:16;101738.31;;;8.71;89.65
46942;BME280;32676;52.630;4.896;2022-12-24T03:58:43;101747.03;;;8.73;89.70
46942;BME280;32676;52.630;4.896;2022-12-24T04:01:09;101750.50;;;8.75;89.46
46942;BME280;32676;52.630;4.896;2022-12-24T04:03:36;101751.38;;;8.74;89.48
46942;BME280;32676;52.630;4.896;2022-12-24T04:06:05;101753.13;;;8.75;89.47
46942;BME280;32676;52.630;4.896;2022-12-24T04:08:33;101750.50;;;8.75;89.56
46942;BME280;32676;52.630;4.896;2022-12-24T04:11:01;101741.81;;;8.73;89.54
46942;BME280;32676;52.630;4.896;2022-12-24T04:13:29;101720.91;;;8.64;89.39
46942;BME280;32676;52.630;4.896;2022-12-24T04:15:57;101740.06;;;8.72;89.35
46942;BME280;32676;52.630;4.896;2022-12-24T04:18:23;101731.34;;;8.70;89.37
46942;BME280;32676;52.630;4.896;2022-12-24T04:20:50;101720.91;;;8.64;89.57
46942;BME280;32676;52.630;4.896;2022-12-24T04:23:16;101724.34;;;8.69;89.80
46942;BME280;32676;52.630;4.896;2022-12-24T04:25:44;101721.75;;;8.68;89.88
46942;BME280;32676;52.630;4.896;2022-12-24T04:28:11;101720.88;;;8.69;89.85
46942;BME280;32676;52.630;4.896;2022-12-24T04:30:38;101713.97;;;8.61;90.02
46942;BME280;32676;52.630;4.896;2022-12-24T04:33:04;101720.00;;;8.68;89.93
46942;BME280;32676;52.630;4.896;2022-12-24T04:35:31;101717.41;;;8.67;89.94
46942;BME280;32676;52.630;4.896;2022-12-24T04:37:58;101715.66;;;8.67;89.98
46942;BME280;32676;52.630;4.896;2022-12-24T04:40:24;101713.03;;;8.67;90.08
46942;BME280;32676;52.630;4.896;2022-12-24T04:42:52;101713.03;;;8.64;90.20
46942;BME280;32676;52.630;4.896;2022-12-24T04:45:19;101713.03;;;8.67;90.10
46942;BME280;32676;52.630;4.896;2022-12-24T04:47:45;101706.94;;;8.65;90.15
46942;BME280;32676;52.630;4.896;2022-12-24T04:50:11;101702.59;;;8.62;90.00
46942;BME280;32676;52.630;4.896;2022-12-24T04:52:38;101720.88;;;8.67;90.02
46942;BME280;32676;52.630;4.896;2022-12-24T04:55:05;101714.78;;;8.65;90.09
46942;BME280;32676;52.630;4.896;2022-12-24T04:57:32;101718.25;;;8.69;90.17
46942;BME280;32676;52.630;4.896;2022-12-24T05:00:04;101727.81;;;8.71;90.40
46942;BME280;32676;52.630;4.896;2022-12-24T05:02:30;101743.53;;;8.74;90.42
46942;BME280;32676;52.630;4.896;2022-12-24T05:04:57;101752.22;;;8.76;90.37
46942;BME280;32676;52.630;4.896;2022-12-24T05:07:23;101748.78;;;8.71;90.49
46942;BME280;32676;52.630;4.896;2022-12-24T05:09:50;101774.03;;;8.81;90.54
46942;BME280;32676;52.630;4.896;2022-12-24T05:12:16;101787.09;;;8.84;90.67
46942;BME280;32676;52.630;4.896;2022-12-24T05:14:43;101801.03;;;8.90;90.79
46942;BME280;32676;52.630;4.896;2022-12-24T05:17:11;101787.16;;;8.78;90.52
46942;BME280;32676;52.630;4.896;2022-12-24T05:19:37;101806.28;;;8.90;90.55
46942;BME280;32676;52.630;4.896;2022-12-24T05:22:04;101815.00;;;8.90;90.59
46942;BME280;32676;52.630;4.896;2022-12-24T05:24:48;101810.66;;;8.88;90.40
46942;BME280;32676;52.630;4.896;2022-12-24T05:27:32;101825.44;;;8.95;90.65
46942;BME280;32676;52.630;4.896;2022-12-24T05:29:58;101821.09;;;8.92;90.42
46942;BME280;32676;52.630;4.896;2022-12-24T05:32:26;101829.84;;;8.91;90.71
46942;BME280;32676;52.630;4.896;2022-12-24T05:34:53;101837.66;;;8.96;90.58
46942;BME280;32676;52.630;4.896;2022-12-24T05:37:19;101853.38;;;8.99;90.58
46942;BME280;32676;52.630;4.896;2022-12-24T05:39:46;101857.72;;;9.01;90.56
46942;BME280;32676;52.630;4.896;2022-12-24T05:42:12;101854.22;;;9.02;90.62
46942;BME280;32676;52.630;4.896;2022-12-24T05:44:39;101860.31;;;9.03;90.60
46942;BME280;32676;52.630;4.896;2022-12-24T05:47:05;101861.19;;;9.03;90.35
46942;BME280;32676;52.630;4.896;2022-12-24T05:49:33;101860.31;;;9.03;90.41
46942;BME280;32676;52.630;4.896;2022-12-24T05:51:59;101865.56;;;9.03;90.49
46942;BME280;32676;52.630;4.896;2022-12-24T05:54:26;101838.63;;;8.87;90.40
46942;BME280;32676;52.630;4.896;2022-12-24T05:56:53;101865.56;;;9.03;90.53
46942;BME280;32676;52.630;4.896;2022-12-24T05:59:19;101853.41;;;8.96;90.35
46942;BME280;32676;52.630;4.896;2022-12-24T06:01:46;101867.34;;;8.98;90.29
46942;BME280;32676;52.630;4.896;2022-12-24T06:04:12;101881.22;;;9.09;90.57
46942;BME280;32676;52.630;4.896;2022-12-24T06:06:40;101883.84;;;9.11;90.57
46942;BME280;32676;52.630;4.896;2022-12-24T06:09:07;101898.69;;;9.13;90.59
46942;BME280;32676;52.630;4.896;2022-12-24T06:11:34;101902.19;;;9.12;90.42
46942;BME280;32676;52.630;4.896;2022-12-24T06:14:00;101909.19;;;9.13;90.27
46942;BME280;32676;52.630;4.896;2022-12-24T06:16:27;101912.59;;;9.18;90.33
46942;BME280;32676;52.630;4.896;2022-12-24T06:18:54;101909.19;;;9.13;90.19
46942;BME280;32676;52.630;4.896;2022-12-24T06:21:21;101924.84;;;9.19;90.30
46942;BME280;32676;52.630;4.896;2022-12-24T06:23:49;101926.59;;;9.20;90.23
46942;BME280;32676;52.630;4.896;2022-12-24T06:26:18;101931.84;;;9.20;90.14
46942;BME280;32676;52.630;4.896;2022-12-24T06:28:46;101925.72;;;9.18;89.97
46942;BME280;32676;52.630;4.896;2022-12-24T06:31:15;101909.19;;;9.13;90.05
46942;BME280;32676;52.630;4.896;2022-12-24T06:33:42;101917.84;;;9.18;90.13
46942;BME280;32676;52.630;4.896;2022-12-24T06:36:13;101914.44;;;9.10;90.10
46942;BME280;32676;52.630;4.896;2022-12-24T06:38:39;101924.84;;;9.19;90.01
46942;BME280;32676;52.630;4.896;2022-12-24T06:41:07;101933.56;;;9.21;90.13
46942;BME280;32676;52.630;4.896;2022-12-24T06:43:34;101928.31;;;9.21;90.18
46942;BME280;32676;52.630;4.896;2022-12-24T06:46:01;101942.28;;;9.23;90.18
46942;BME280;32676;52.630;4.896;2022-12-24T06:48:29;101924.91;;;9.13;90.07
46942;BME280;32676;52.630;4.896;2022-12-24T06:50:56;101945.78;;;9.26;90.13
46942;BME280;32676;52.630;4.896;2022-12-24T06:53:22;101943.16;;;9.26;90.11
46942;BME280;32676;52.630;4.896;2022-12-24T06:55:49;101947.53;;;9.23;89.87
46942;BME280;32676;52.630;4.896;2022-12-24T06:58:17;101953.63;;;9.27;89.90
46942;BME280;32676;52.630;4.896;2022-12-24T07:00:43;101955.38;;;9.28;89.87
46942;BME280;32676;52.630;4.896;2022-12-24T07:03:12;101943.16;;;9.26;89.64
46942;BME280;32676;52.630;4.896;2022-12-24T07:05:39;101942.28;;;9.23;89.75
46942;BME280;32676;52.630;4.896;2022-12-24T07:08:07;101909.16;;;9.15;89.42
46942;BME280;32676;52.630;4.896;2022-12-24T07:10:34;101918.75;;;9.20;89.52
46942;BME280;32676;52.630;4.896;2022-12-24T07:13:00;101913.50;;;9.17;89.39
46942;BME280;32676;52.630;4.896;2022-12-24T07:15:28;101889.94;;;9.14;89.25
46942;BME280;32676;52.630;4.896;2022-12-24T07:17:54;101883.00;;;9.07;89.38
46942;BME280;32676;52.630;4.896;2022-12-24T07:20:21;101881.22;;;9.12;89.41
46942;BME280;32676;52.630;4.896;2022-12-24T07:22:47;101896.06;;;9.13;89.27
46942;BME280;32676;52.630;4.896;2022-12-24T07:25:14;101884.69;;;9.11;89.54
46942;BME280;32676;52.630;4.896;2022-12-24T07:27:40;101895.19;;;9.14;89.50
46942;BME280;32676;52.630;4.896;2022-12-24T07:30:08;101894.31;;;9.15;89.35
46942;BME280;32676;52.630;4.896;2022-12-24T07:32:36;101907.38;;;9.18;89.49
46942;BME280;32676;52.630;4.896;2022-12-24T07:35:03;101897.81;;;9.13;89.61
46942;BME280;32676;52.630;4.896;2022-12-24T07:37:29;101916.13;;;9.20;89.47
46942;BME280;32676;52.630;4.896;2022-12-24T07:39:56;101914.38;;;9.19;89.47
46942;BME280;32676;52.630;4.896;2022-12-24T07:42:22;101903.91;;;9.16;89.74
46942;BME280;32676;52.630;4.896;2022-12-24T07:44:48;101924.84;;;9.22;89.60
46942;BME280;32676;52.630;4.896;2022-12-24T07:47:17;101933.56;;;9.25;89.63
46942;BME280;32676;52.630;4.896;2022-12-24T07:49:45;101935.31;;;9.22;89.74
46942;BME280;32676;52.630;4.896;2022-12-24T07:52:11;101945.75;;;9.29;89.57
46942;BME280;32676;52.630;4.896;2022-12-24T07:54:38;101956.22;;;9.30;89.42
46942;BME280;32676;52.630;4.896;2022-12-24T07:57:04;101953.63;;;9.29;89.59
46942;BME280;32676;52.630;4.896;2022-12-24T07:59:31;101951.88;;;9.28;89.33
46942;BME280;32676;52.630;4.896;2022-12-24T08:01:57;101960.56;;;9.31;89.68
46942;BME280;32676;52.630;4.896;2022-12-24T08:04:24;101954.53;;;9.25;89.47
46942;BME280;32676;52.630;4.896;2022-12-24T08:06:51;101961.47;;;9.32;89.50
46942;BME280;32676;52.630;4.896;2022-12-24T08:09:18;101961.47;;;9.32;89.56
46942;BME280;32676;52.630;4.896;2022-12-24T08:11:44;101945.75;;;9.29;89.57
46942;BME280;32676;52.630;4.896;2022-12-24T08:14:11;101944.00;;;9.28;89.62
46942;BME280;32676;52.630;4.896;2022-12-24T08:16:37;101938.81;;;9.25;89.56
46942;BME280;32676;52.630;4.896;2022-12-24T08:19:04;101942.28;;;9.27;89.47
46942;BME280;32676;52.630;4.896;2022-12-24T08:21:30;101929.19;;;9.23;89.48
46942;BME280;32676;52.630;4.896;2022-12-24T08:23:58;101944.91;;;9.27;89.38
46942;BME280;32676;52.630;4.896;2022-12-24T08:26:24;101937.06;;;9.23;89.62
46942;BME280;32676;52.630;4.896;2022-12-24T08:28:51;101937.03;;;9.27;89.55
46942;BME280;32676;52.630;4.896;2022-12-24T08:31:17;101942.28;;;9.23;89.73
46942;BME280;32676;52.630;4.896;2022-12-24T08:33:44;101967.59;;;9.28;89.82
46942;BME280;32676;52.630;4.896;2022-12-24T08:36:10;102010.31;;;9.45;89.89
46942;BME280;32676;52.630;4.896;2022-12-24T08:38:37;102017.34;;;9.43;89.85
46942;BME280;32676;52.630;4.896;2022-12-24T08:41:05;102060.97;;;9.53;89.74
46942;BME280;32676;52.630;4.896;2022-12-24T08:43:32;102070.56;;;9.59;89.55
46942;BME280;32676;52.630;4.896;2022-12-24T08:46:01;102084.56;;;9.58;89.48
46942;BME280;32676;52.630;4.896;2022-12-24T08:48:29;102107.25;;;9.62;89.12
46942;BME280;32676;52.630;4.896;2022-12-24T08:50:55;102114.25;;;9.63;89.14
46942;BME280;32676;52.630;4.896;2022-12-24T08:53:22;102123.81;;;9.72;88.91
46942;BME280;32676;52.630;4.896;2022-12-24T08:55:48;102128.16;;;9.73;88.79
46942;BME280;32676;52.630;4.896;2022-12-24T08:58:16;102122.06;;;9.71;88.68
46942;BME280;32676;52.630;4.896;2022-12-24T09:00:42;102125.53;;;9.73;88.75
46942;BME280;32676;52.630;4.896;2022-12-24T09:03:13;102155.25;;;9.78;88.68
46942;BME280;32676;52.630;4.896;2022-12-24T09:05:39;102168.38;;;9.81;88.09
46942;BME280;32676;52.630;4.896;2022-12-24T09:08:06;102193.69;;;9.88;88.00
46942;BME280;32676;52.630;4.896;2022-12-24T09:10:33;102211.19;;;9.89;87.92
46942;BME280;32676;52.630;4.896;2022-12-24T09:12:59;102222.56;;;9.88;87.74
46942;BME280;32676;52.630;4.896;2022-12-24T09:15:27;102226.91;;;9.92;87.38
46942;BME280;32676;52.630;4.896;2022-12-24T09:17:53;102241.75;;;9.99;87.20
46942;BME280;32676;52.630;4.896;2022-12-24T09:20:20;102213.00;;;9.84;87.24
46942;BME280;32676;52.630;4.896;2022-12-24T09:22:46;102240.88;;;10.01;86.96
46942;BME280;32676;52.630;4.896;2022-12-24T09:25:13;102248.75;;;10.01;86.66
46942;BME280;32676;52.630;4.896;2022-12-24T09:27:41;102226.91;;;9.92;86.64
46942;BME280;32676;52.630;4.896;2022-12-24T09:30:08;102241.75;;;9.98;86.10
46942;BME280;32676;52.630;4.896;2022-12-24T09:32:36;102241.75;;;9.99;86.17
46942;BME280;32676;52.630;4.896;2022-12-24T09:35:03;102254.88;;;10.03;86.07
46942;BME280;32676;52.630;4.896;2022-12-24T09:37:31;102258.34;;;10.05;85.78
46942;BME280;32676;52.630;4.896;2022-12-24T09:39:57;102247.91;;;9.95;85.88
46942;BME280;32676;52.630;4.896;2022-12-24T09:42:31;102260.06;;;10.06;85.66
46942;BME280;32676;52.630;4.896;2022-12-24T09:45:07;102272.34;;;10.07;85.56
46942;BME280;32676;52.630;4.896;2022-12-24T09:47:42;102260.13;;;10.03;85.59
46942;BME280;32676;52.630;4.896;2022-12-24T09:50:23;102245.22;;;10.02;85.53
46942;BME280;32676;52.630;4.896;2022-12-24T09:52:52;102225.16;;;9.94;85.40
46942;BME280;32676;52.630;4.896;2022-12-24T09:55:22;102202.44;;;9.87;85.45
46942;BME280;32676;52.630;4.896;2022-12-24T09:57:52;102188.44;;;9.88;85.36
46942;BME280;32676;52.630;4.896;2022-12-24T10:00:21;102184.91;;;9.89;85.18
46942;BME280;32676;52.630;4.896;2022-12-24T10:02:49;102176.19;;;9.87;85.15
46942;BME280;32676;52.630;4.896;2022-12-24T10:05:17;102172.72;;;9.82;85.06
46942;BME280;32676;52.630;4.896;2022-12-24T10:07:53;102163.09;;;9.83;85.46
46942;BME280;32676;52.630;4.896;2022-12-24T10:10:27;102150.84;;;9.82;85.15
46942;BME280;32676;52.630;4.896;2022-12-24T10:13:03;102174.47;;;9.86;85.50
46942;BME280;32676;52.630;4.896;2022-12-24T10:15:35;102212.00;;;9.94;85.51
46942;BME280;32676;52.630;4.896;2022-12-24T10:18:17;102219.91;;;9.94;85.69
46942;BME280;32676;52.630;4.896;2022-12-24T10:20:51;102268.84;;;10.08;85.72
46942;BME280;32676;52.630;4.896;2022-12-24T10:23:23;102281.94;;;10.11;85.46
46942;BME280;32676;52.630;4.896;2022-12-24T10:26:00;102300.28;;;10.17;85.38
46942;BME280;32676;52.630;4.896;2022-12-24T10:28:32;102310.81;;;10.17;85.05
46942;BME280;32676;52.630;4.896;2022-12-24T10:31:04;102308.19;;;10.17;85.03
46942;BME280;32676;52.630;4.896;2022-12-24T10:33:37;102325.66;;;10.23;85.11
46942;BME280;32676;52.630;4.896;2022-12-24T10:36:07;102340.50;;;10.25;85.00
46942;BME280;32676;52.630;4.896;2022-12-24T10:38:36;102347.50;;;10.28;84.67
46942;BME280;32676;52.630;4.896;2022-12-24T10:41:04;102348.38;;;10.27;84.53
46942;BME280;32676;52.630;4.896;2022-12-24T10:43:31;102369.38;;;10.33;84.70
46942;BME280;32676;52.630;4.896;2022-12-24T10:46:00;102378.16;;;10.32;84.78
46942;BME280;32676;52.630;4.896;2022-12-24T10:48:29;102397.38;;;10.38;84.76
46942;BME280;32676;52.630;4.896;2022-12-24T10:51:02;102417.47;;;10.46;84.70
46942;BME280;32676;52.630;4.896;2022-12-24T10:53:39;102448.13;;;10.51;84.47
46942;BME280;32676;52.630;4.896;2022-12-24T10:56:10;102484.88;;;10.59;84.27
46942;BME280;32676;52.630;4.896;2022-12-24T10:58:42;102501.50;;;10.64;84.12
46942;BME280;32676;52.630;4.896;2022-12-24T11:01:10;102491.00;;;10.58;84.08
46942;BME280;32676;52.630;4.896;2022-12-24T11:03:36;102514.59;;;10.66;83.64
46942;BME280;32676;52.630;4.896;2022-12-24T11:06:08;102525.97;;;10.69;83.46
46942;BME280;32676;52.630;4.896;2022-12-24T11:08:37;102519.00;;;10.62;83.58
46942;BME280;32676;52.630;4.896;2022-12-24T11:11:06;102537.34;;;10.73;83.06
46942;BME280;32676;52.630;4.896;2022-12-24T11:13:35;102533.00;;;10.73;83.07
46942;BME280;32676;52.630;4.896;2022-12-24T11:16:06;102520.78;;;10.63;82.85
46942;BME280;32676;52.630;4.896;2022-12-24T11:18:35;102527.75;;;10.69;82.32
46942;BME280;32676;52.630;4.896;2022-12-24T11:21:05;102536.50;;;10.75;82.23
46942;BME280;32676;52.630;4.896;2022-12-24T11:23:33;102526.84;;;10.73;81.83
46942;BME280;32676;52.630;4.896;2022-12-24T11:26:00;102525.13;;;10.72;81.89
46942;BME280;32676;52.630;4.896;2022-12-24T11:28:29;102519.00;;;10.71;81.51
46942;BME280;32676;52.630;4.896;2022-12-24T11:31:01;102515.47;;;10.69;81.59
46942;BME280;32676;52.630;4.896;2022-12-24T11:33:28;102521.63;;;10.68;81.93
46942;BME280;32676;52.630;4.896;2022-12-24T11:35:59;102511.97;;;10.70;81.61
46942;BME280;32676;52.630;4.896;2022-12-24T11:38:29;102508.47;;;10.68;81.77
46942;BME280;32676;52.630;4.896;2022-12-24T11:41:00;102490.09;;;10.64;81.80
46942;BME280;32676;52.630;4.896;2022-12-24T11:43:36;102491.00;;;10.64;81.60
46942;BME280;32676;52.630;4.896;2022-12-24T11:46:33;102492.72;;;10.65;81.53
46942;BME280;32676;52.630;4.896;2022-12-24T11:49:12;102496.19;;;10.67;81.51
46942;BME280;32676;52.630;4.896;2022-12-24T11:51:59;102478.72;;;10.59;81.28
46942;BME280;32676;52.630;4.896;2022-12-24T11:54:33;102515.47;;;10.72;80.91
46942;BME280;32676;52.630;4.896;2022-12-24T11:57:03;102511.97;;;10.70;80.74
46942;BME280;32676;52.630;4.896;2022-12-24T11:59:33;102513.72;;;10.71;80.96
46942;BME280;32676;52.630;4.896;2022-12-24T12:02:12;102518.94;;;10.74;81.07
46942;BME280;32676;52.630;4.896;2022-12-24T12:04:43;102529.47;;;10.74;80.73
46942;BME280;32676;52.630;4.896;2022-12-24T12:07:14;102525.97;;;10.75;80.46
46942;BME280;32676;52.630;4.896;2022-12-24T12:09:46;102501.44;;;10.70;80.32
46942;BME280;32676;52.630;4.896;2022-12-24T12:12:18;102489.22;;;10.63;80.06
46942;BME280;32676;52.630;4.896;2022-12-24T12:14:50;102472.59;;;10.63;80.15
46942;BME280;32676;52.630;4.896;2022-12-24T12:17:27;102460.31;;;10.60;79.99
46942;BME280;32676;52.630;4.896;2022-12-24T12:19:57;102459.44;;;10.61;80.23
46942;BME280;32676;52.630;4.896;2022-12-24T12:22:29;102474.31;;;10.64;80.46
46942;BME280;32676;52.630;4.896;2022-12-24T12:25:02;102474.31;;;10.64;80.74
46942;BME280;32676;52.630;4.896;2022-12-24T12:27:32;102478.69;;;10.66;80.73
46942;BME280;32676;52.630;4.896;2022-12-24T12:30:03;102485.69;;;10.67;80.71
46942;BME280;32676;52.630;4.896;2022-12-24T12:32:40;102478.69;;;10.66;81.07
46942;BME280;32676;52.630;4.896;2022-12-24T12:35:24;102473.44;;;10.66;81.22
46942;BME280;32676;52.630;4.896;2022-12-24T12:38:01;102482.19;;;10.68;81.15
46942;BME280;32676;52.630;4.896;2022-12-24T12:40:54;102498.81;;;10.72;80.87
46942;BME280;32676;52.630;4.896;2022-12-24T12:43:36;102517.19;;;10.76;81.03
46942;BME280;32676;52.630;4.896;2022-12-24T12:46:12;102484.81;;;10.68;81.07
46942;BME280;32676;52.630;4.896;2022-12-24T12:48:54;102448.09;;;10.56;80.69
46942;BME280;32676;52.630;4.896;2022-12-24T12:51:31;102440.19;;;10.59;80.92
46942;BME280;32676;52.630;4.896;2022-12-24T12:54:15;102427.91;;;10.55;80.83
46942;BME280;32676;52.630;4.896;2022-12-24T12:56:49;102427.91;;;10.55;80.78
46942;BME280;32676;52.630;4.896;2022-12-24T12:59:19;102406.09;;;10.48;80.81
46942;BME280;32676;52.630;4.896;2022-12-24T13:01:57;102404.31;;;10.50;81.02
46942;BME280;32676;52.630;4.896;2022-12-24T13:04:46;102377.19;;;10.45;80.86
46942;BME280;32676;52.630;4.896;2022-12-24T13:07:35;102373.69;;;10.45;81.00
46942;BME280;32676;52.630;4.896;2022-12-24T13:10:31;102365.81;;;10.43;80.73
46942;BME280;32676;52.630;4.896;2022-12-24T13:13:22;102374.56;;;10.45;81.21